createdAt,value
2023-09-30T00:00:10.326Z,17.53
2023-09-30T00:02:37.290Z,17.43
2023-09-30T00:05:05.339Z,17.47
2023-09-30T00:07:32.648Z,17.63
2023-09-30T00:10:00.126Z,17.43
2023-09-30T00:12:28.199Z,17.53
2023-09-30T00:14:55.146Z,17.51
2023-09-30T00:17:21.842Z,17.48
2023-09-30T00:19:48.757Z,17.34
2023-09-30T00:22:15.442Z,17.45
2023-09-30T00:24:42.194Z,17.23
2023-09-30T00:27:09.147Z,17.22
2023-09-30T00:29:36.960Z,17.22
2023-09-30T00:32:04.392Z,17.31
2023-09-30T00:34:35.047Z,17.27
2023-09-30T00:37:02.092Z,17.37
2023-09-30T00:39:31.751Z,17.11
2023-09-30T00:41:59.954Z,17.26
2023-09-30T00:44:27.789Z,17.15
2023-09-30T00:46:56.849Z,17.08
2023-09-30T00:49:27.348Z,17.11
2023-09-30T00:51:55.890Z,17.11
2023-09-30T00:54:22.982Z,17.18
2023-09-30T00:56:50.763Z,17.30
2023-09-30T00:59:18.080Z,17.18
2023-09-30T01:01:45.379Z,17.18
2023-09-30T01:04:12.501Z,17.25
2023-09-30T01:06:39.628Z,17.16
2023-09-30T01:09:06.370Z,17.06
2023-09-30T01:11:33.264Z,17.06
2023-09-30T01:13:59.884Z,16.95
2023-09-30T01:16:26.498Z,16.86
2023-09-30T01:18:53.280Z,17.06
2023-09-30T01:21:20.390Z,16.94
2023-09-30T01:23:47.874Z,16.88
2023-09-30T01:26:14.931Z,16.91
2023-09-30T01:28:41.842Z,16.84
2023-09-30T01:31:08.627Z,16.95
2023-09-30T01:33:35.664Z,16.88
2023-09-30T01:36:02.324Z,16.72
2023-09-30T01:38:29.020Z,16.83
2023-09-30T01:40:56.953Z,16.78
2023-09-30T01:43:25.594Z,16.83
2023-09-30T01:45:52.241Z,16.76
2023-09-30T01:48:19.052Z,16.79
2023-09-30T01:50:45.952Z,16.62
2023-09-30T01:53:12.617Z,16.70
2023-09-30T01:55:39.239Z,16.74
2023-09-30T01:58:06.283Z,16.84
2023-09-30T02:00:32.955Z,16.76
2023-09-30T02:02:59.872Z,16.74
2023-09-30T02:05:26.597Z,16.70
2023-09-30T02:07:53.202Z,16.50
2023-09-30T02:10:22.677Z,16.48
2023-09-30T02:12:49.451Z,16.52
2023-09-30T02:15:16.248Z,16.46
2023-09-30T02:17:47.390Z,16.40
2023-09-30T02:20:17.555Z,16.42
2023-09-30T02:22:45.611Z,16.39
2023-09-30T02:25:14.015Z,16.52
2023-09-30T02:27:42.825Z,16.49
2023-09-30T02:30:12.984Z,16.61
2023-09-30T02:32:41.072Z,16.57
2023-09-30T02:35:08.037Z,16.53
2023-09-30T02:37:36.815Z,16.54
2023-09-30T02:40:10.963Z,16.52
2023-09-30T02:42:39.029Z,16.42
2023-09-30T02:45:06.762Z,16.41
2023-09-30T02:47:33.694Z,16.42
2023-09-30T02:50:00.382Z,16.42
2023-09-30T02:52:27.065Z,16.43
2023-09-30T02:54:54.124Z,16.45
2023-09-30T02:57:20.852Z,16.41
2023-09-30T02:59:47.701Z,16.47
2023-09-30T03:02:14.531Z,16.50
2023-09-30T03:04:41.178Z,16.47
2023-09-30T03:07:08.694Z,16.46
2023-09-30T03:09:35.667Z,16.43
2023-09-30T03:12:02.423Z,16.37
2023-09-30T03:14:32.255Z,16.35
2023-09-30T03:16:59.479Z,16.31
2023-09-30T03:19:26.114Z,16.31
2023-09-30T03:21:52.977Z,16.28
2023-09-30T03:24:19.727Z,16.24
2023-09-30T03:26:46.780Z,16.19
2023-09-30T03:29:13.957Z,16.16
2023-09-30T03:31:41.119Z,16.13
2023-09-30T03:34:07.901Z,16.10
2023-09-30T03:36:34.813Z,16.06
2023-09-30T03:39:01.512Z,16.04
2023-09-30T03:41:29.715Z,16.05
2023-09-30T03:43:56.601Z,16.04
2023-09-30T03:46:23.376Z,16.05
2023-09-30T03:48:50.157Z,16.04
2023-09-30T03:51:16.866Z,16.04
2023-09-30T03:53:44.096Z,16.04
2023-09-30T03:56:13.042Z,16.02
2023-09-30T03:58:40.806Z,16.17
2023-09-30T04:01:07.689Z,16.21
2023-09-30T04:03:34.987Z,16.06
2023-09-30T04:06:03.725Z,15.99
2023-09-30T04:08:30.360Z,16.00
2023-09-30T04:10:56.937Z,15.91
2023-09-30T04:13:23.743Z,16.00
2023-09-30T04:15:50.823Z,16.04
2023-09-30T04:18:17.613Z,15.98
2023-09-30T04:20:46.315Z,15.99
2023-09-30T04:23:14.102Z,15.87
2023-09-30T04:25:41.387Z,15.86
2023-09-30T04:28:10.991Z,15.91
2023-09-30T04:30:37.669Z,15.95
2023-09-30T04:33:06.167Z,15.87
2023-09-30T04:35:32.900Z,15.88
2023-09-30T04:38:02.547Z,15.99
2023-09-30T04:40:29.201Z,15.88
2023-09-30T04:42:59.713Z,15.73
2023-09-30T04:45:27.590Z,15.80
2023-09-30T04:47:54.795Z,15.83
2023-09-30T04:50:23.783Z,15.82
2023-09-30T04:52:52.666Z,15.75
2023-09-30T04:55:20.047Z,15.89
2023-09-30T04:57:49.232Z,15.95
2023-09-30T05:00:16.726Z,15.85
2023-09-30T05:02:44.182Z,15.79
2023-09-30T05:05:10.993Z,15.75
2023-09-30T05:07:37.697Z,15.78
2023-09-30T05:10:11.521Z,15.76
2023-09-30T05:12:38.652Z,15.69
2023-09-30T05:15:07.387Z,15.68
2023-09-30T05:17:34.182Z,15.63
2023-09-30T05:20:00.809Z,15.65
2023-09-30T05:22:28.245Z,15.61
2023-09-30T05:24:54.874Z,15.58
2023-09-30T05:27:21.594Z,15.54
2023-09-30T05:29:48.275Z,15.63
2023-09-30T05:32:15.721Z,15.62
2023-09-30T05:34:42.459Z,15.67
2023-09-30T05:37:09.083Z,15.64
2023-09-30T05:39:36.479Z,15.56
2023-09-30T05:42:04.214Z,15.54
2023-09-30T05:44:30.802Z,15.52
2023-09-30T05:46:57.506Z,15.49
2023-09-30T05:49:24.953Z,15.46
2023-09-30T05:51:52.105Z,15.51
2023-09-30T05:54:18.734Z,15.53
2023-09-30T05:56:46.201Z,15.51
2023-09-30T05:59:14.836Z,15.49
2023-09-30T06:01:42.317Z,15.49
2023-09-30T06:04:09.331Z,15.49
2023-09-30T06:06:36.045Z,15.48
2023-09-30T06:09:02.818Z,15.48
2023-09-30T06:11:32.096Z,15.75
2023-09-30T06:14:02.334Z,15.69
2023-09-30T06:16:29.221Z,15.59
2023-09-30T06:18:56.123Z,15.63
2023-09-30T06:21:23.204Z,15.64
2023-09-30T06:23:55.942Z,15.63
2023-09-30T06:26:22.543Z,15.68
2023-09-30T06:28:49.334Z,15.75
2023-09-30T06:31:16.897Z,15.79
2023-09-30T06:33:43.609Z,16.03
2023-09-30T06:36:10.563Z,15.92
2023-09-30T06:38:38.321Z,15.83
2023-09-30T06:41:05.269Z,15.84
2023-09-30T06:43:32.126Z,15.76
2023-09-30T06:45:58.943Z,15.80
2023-09-30T06:48:26.198Z,15.86
2023-09-30T06:50:53.994Z,15.89
2023-09-30T06:53:20.681Z,15.87
2023-09-30T06:55:47.541Z,15.89
2023-09-30T06:58:15.276Z,16.02
2023-09-30T07:00:43.135Z,16.19
2023-09-30T07:03:10.773Z,16.10
2023-09-30T07:05:37.762Z,16.24
2023-09-30T07:08:04.561Z,16.39
2023-09-30T07:10:31.160Z,16.43
2023-09-30T07:12:58.304Z,16.42
2023-09-30T07:15:24.936Z,16.51
2023-09-30T07:17:51.602Z,16.55
2023-09-30T07:20:19.101Z,16.49
2023-09-30T07:22:55.885Z,16.46
2023-09-30T07:25:32.964Z,16.48
2023-09-30T07:28:00.368Z,16.55
2023-09-30T07:30:26.926Z,16.65
2023-09-30T07:32:53.665Z,16.69
2023-09-30T07:35:20.332Z,16.70
2023-09-30T07:37:47.045Z,16.75
2023-09-30T07:40:13.851Z,16.70
2023-09-30T07:42:40.648Z,16.71
2023-09-30T07:45:07.570Z,16.73
2023-09-30T07:47:35.406Z,16.74
2023-09-30T07:50:11.796Z,16.81
2023-09-30T07:52:41.034Z,16.74
2023-09-30T07:55:08.273Z,16.81
2023-09-30T07:57:35.041Z,16.68
2023-09-30T08:00:02.165Z,16.76
2023-09-30T08:02:34.506Z,16.76
2023-09-30T08:05:01.642Z,16.78
2023-09-30T08:07:28.361Z,16.90
2023-09-30T08:09:55.304Z,16.88
2023-09-30T08:12:22.430Z,16.77
2023-09-30T08:14:50.159Z,16.83
2023-09-30T08:17:16.982Z,16.93
2023-09-30T08:19:43.922Z,16.73
2023-09-30T08:22:10.896Z,16.76
2023-09-30T08:24:37.517Z,16.79
2023-09-30T08:27:04.205Z,16.70
2023-09-30T08:29:33.641Z,16.83
2023-09-30T08:32:00.268Z,16.86
2023-09-30T08:34:26.999Z,16.86
2023-09-30T08:36:53.726Z,17.07
2023-09-30T08:39:20.426Z,17.19
2023-09-30T08:41:47.432Z,17.20
2023-09-30T08:44:14.177Z,17.26
2023-09-30T08:46:42.248Z,17.45
2023-09-30T08:49:09.247Z,17.32
2023-09-30T08:51:37.159Z,17.30
2023-09-30T08:54:05.343Z,17.27
2023-09-30T08:56:35.557Z,17.29
2023-09-30T08:59:03.822Z,17.20
2023-09-30T09:01:31.769Z,17.22
2023-09-30T09:03:58.837Z,17.52
2023-09-30T09:06:29.295Z,17.55
2023-09-30T09:09:13.881Z,17.81
2023-09-30T09:11:41.021Z,17.79
2023-09-30T09:14:08.842Z,17.69
2023-09-30T09:16:35.591Z,17.70
2023-09-30T09:19:14.135Z,17.70
2023-09-30T09:21:54.127Z,17.76
2023-09-30T09:24:33.821Z,17.77
2023-09-30T09:27:07.806Z,17.69
2023-09-30T09:29:34.893Z,17.63
2023-09-30T09:32:08.481Z,17.74
2023-09-30T09:34:35.091Z,17.75
2023-09-30T09:37:13.513Z,17.80
2023-09-30T09:39:40.210Z,17.91
2023-09-30T09:42:07.730Z,17.81
2023-09-30T09:44:34.732Z,17.93
2023-09-30T09:47:02.563Z,17.97
2023-09-30T09:49:30.467Z,17.86
2023-09-30T09:51:57.698Z,18.13
2023-09-30T09:54:24.983Z,18.16
2023-09-30T09:56:55.000Z,18.21
2023-09-30T09:59:23.704Z,18.07
2023-09-30T10:01:50.600Z,18.12
2023-09-30T10:04:18.218Z,18.00
2023-09-30T10:06:49.818Z,17.98
2023-09-30T10:09:18.736Z,18.09
2023-09-30T10:11:46.302Z,18.14
2023-09-30T10:14:34.195Z,18.38
2023-09-30T10:17:01.162Z,18.26
2023-09-30T10:19:29.024Z,18.24
2023-09-30T10:22:14.631Z,18.33
2023-09-30T10:24:41.281Z,18.18
2023-09-30T10:27:34.618Z,18.25
2023-09-30T10:30:07.750Z,18.43
2023-09-30T10:32:52.936Z,18.53
2023-09-30T10:35:28.882Z,18.37
2023-09-30T10:38:14.331Z,18.40
2023-09-30T10:40:40.892Z,18.49
2023-09-30T10:43:27.570Z,18.52
2023-09-30T10:45:54.575Z,18.55
2023-09-30T10:48:27.191Z,18.45
2023-09-30T10:50:56.623Z,18.53
2023-09-30T10:53:23.680Z,18.52
2023-09-30T10:55:56.920Z,18.58
2023-09-30T10:58:39.549Z,18.53
2023-09-30T11:01:06.292Z,18.64
2023-09-30T11:03:33.182Z,18.47
2023-09-30T11:08:31.284Z,18.55
2023-09-30T11:10:58.864Z,18.48
2023-09-30T11:13:32.254Z,18.40
2023-09-30T11:16:03.707Z,18.31
2023-09-30T11:18:30.636Z,18.43
2023-09-30T11:21:23.829Z,18.62
2023-09-30T11:23:51.109Z,18.69
2023-09-30T11:26:17.694Z,18.82
2023-09-30T11:28:46.415Z,18.91
2023-09-30T11:31:14.885Z,18.92
2023-09-30T11:33:52.154Z,18.95
2023-09-30T11:36:19.473Z,18.90
2023-09-30T11:38:48.126Z,18.81
2023-09-30T11:41:14.860Z,18.88
2023-09-30T11:44:00.822Z,18.94
2023-09-30T11:46:28.829Z,18.85
2023-09-30T11:48:57.939Z,18.95
2023-09-30T11:51:25.700Z,18.99
2023-09-30T11:53:52.457Z,18.91
2023-09-30T11:56:19.989Z,18.98
2023-09-30T11:58:47.539Z,19.01
2023-09-30T12:01:15.375Z,19.07
2023-09-30T12:03:42.572Z,19.08
2023-09-30T12:06:09.268Z,18.88
2023-09-30T12:08:35.893Z,18.83
2023-09-30T12:11:02.550Z,18.86
2023-09-30T12:13:29.164Z,18.82
2023-09-30T12:15:55.810Z,18.92
2023-09-30T12:18:25.892Z,18.99
2023-09-30T12:20:55.394Z,18.96
2023-09-30T12:23:22.203Z,18.93
2023-09-30T12:25:58.722Z,19.03
2023-09-30T12:28:33.800Z,18.99
2023-09-30T12:31:03.105Z,18.98
2023-09-30T12:33:31.557Z,18.92
2023-09-30T12:35:59.342Z,18.96
2023-09-30T12:38:27.021Z,19.21
2023-09-30T12:40:54.594Z,19.18
2023-09-30T12:43:21.558Z,19.14
2023-09-30T12:45:48.604Z,19.05
2023-09-30T12:48:15.846Z,19.15
2023-09-30T12:50:42.653Z,19.17
2023-09-30T12:53:09.317Z,18.99
2023-09-30T12:55:36.060Z,18.97
2023-09-30T12:58:03.231Z,19.02
2023-09-30T13:00:32.744Z,19.27
2023-09-30T13:02:59.941Z,19.40
2023-09-30T13:05:26.792Z,19.41
2023-09-30T13:07:57.045Z,19.08
2023-09-30T13:10:24.181Z,19.15
2023-09-30T13:12:51.133Z,19.28
2023-09-30T13:15:17.993Z,19.19
2023-09-30T13:17:44.924Z,19.19
2023-09-30T13:20:13.089Z,19.17
2023-09-30T13:22:40.283Z,19.24
2023-09-30T13:25:07.629Z,19.05
2023-09-30T13:27:34.468Z,19.09
2023-09-30T13:30:02.675Z,19.13
2023-09-30T13:32:29.508Z,19.16
2023-09-30T13:34:56.478Z,19.13
2023-09-30T13:37:24.039Z,19.05
2023-09-30T13:39:51.587Z,19.13
2023-09-30T13:42:19.108Z,19.23
2023-09-30T13:44:45.743Z,19.12
2023-09-30T13:47:12.384Z,19.11
2023-09-30T13:49:39.057Z,19.21
2023-09-30T13:52:06.794Z,19.17
2023-09-30T13:54:33.563Z,19.41
2023-09-30T13:57:00.580Z,19.11
2023-09-30T13:59:29.125Z,19.23
2023-09-30T14:01:55.827Z,19.10
2023-09-30T14:04:22.855Z,18.98
2023-09-30T14:06:49.562Z,18.93
2023-09-30T14:09:33.236Z,19.00
2023-09-30T14:12:02.238Z,18.94
2023-09-30T14:14:28.913Z,19.06
2023-09-30T14:16:55.857Z,19.08
2023-09-30T14:19:22.529Z,19.14
2023-09-30T14:21:50.184Z,19.26
2023-09-30T14:24:16.893Z,19.16
2023-09-30T14:26:45.364Z,19.11
2023-09-30T14:29:13.633Z,19.27
2023-09-30T14:31:40.230Z,19.17
2023-09-30T14:34:06.999Z,19.30
2023-09-30T14:36:34.449Z,19.12
2023-09-30T14:39:13.885Z,18.99
2023-09-30T14:41:41.818Z,19.18
2023-09-30T14:44:09.187Z,19.10
2023-09-30T14:46:36.727Z,19.20
2023-09-30T14:49:03.540Z,18.97
2023-09-30T14:51:30.293Z,18.82
2023-09-30T14:53:56.880Z,18.71
2023-09-30T14:56:23.481Z,18.66
2023-09-30T14:58:50.355Z,18.46
2023-09-30T15:01:17.094Z,18.61
2023-09-30T15:03:45.527Z,18.78
2023-09-30T15:06:12.360Z,18.89
2023-09-30T15:08:39.072Z,18.93
2023-09-30T15:11:05.657Z,18.98
2023-09-30T15:13:32.322Z,18.78
2023-09-30T15:15:59.294Z,18.81
2023-09-30T15:18:26.120Z,19.00
2023-09-30T15:20:53.104Z,18.88
2023-09-30T15:23:19.764Z,18.92
2023-09-30T15:25:46.732Z,18.84
2023-09-30T15:28:13.965Z,18.88
2023-09-30T15:30:41.052Z,18.97
2023-09-30T15:33:08.028Z,19.01
2023-09-30T15:35:35.072Z,18.88
2023-09-30T15:38:01.695Z,18.95
2023-09-30T15:40:28.297Z,18.93
2023-09-30T15:42:55.070Z,18.86
2023-09-30T15:45:21.773Z,18.89
2023-09-30T15:47:48.397Z,18.87
2023-09-30T15:50:15.156Z,18.76
2023-09-30T15:52:41.969Z,18.54
2023-09-30T15:55:08.704Z,18.53
2023-09-30T15:57:35.441Z,18.57
2023-09-30T16:00:02.090Z,18.41
2023-09-30T16:02:29.367Z,18.45
2023-09-30T16:04:56.018Z,18.37
2023-09-30T16:07:23.305Z,18.30
2023-09-30T16:09:50.642Z,18.30
2023-09-30T16:12:17.852Z,18.30
2023-09-30T16:14:44.425Z,18.31
2023-09-30T16:17:12.796Z,18.59
2023-09-30T16:19:39.410Z,18.35
2023-09-30T16:22:07.100Z,18.33
2023-09-30T16:24:33.710Z,18.25
2023-09-30T16:27:00.307Z,18.09
2023-09-30T16:29:27.039Z,18.01
2023-09-30T16:31:53.733Z,18.01
2023-09-30T16:34:20.434Z,17.95
2023-09-30T16:36:47.257Z,17.92
2023-09-30T16:39:16.067Z,17.91
2023-09-30T16:41:42.750Z,17.81
2023-09-30T16:44:09.397Z,17.78
2023-09-30T16:46:36.071Z,17.74
2023-09-30T16:49:02.837Z,17.74
2023-09-30T16:51:29.483Z,17.70
2023-09-30T16:53:56.212Z,17.69
2023-09-30T16:56:22.984Z,17.62
2023-09-30T16:58:49.701Z,17.53
2023-09-30T17:01:16.370Z,17.61
2023-09-30T17:03:43.127Z,17.52
2023-09-30T17:06:09.799Z,17.50
2023-09-30T17:08:37.078Z,17.48
2023-09-30T17:11:04.402Z,17.40
2023-09-30T17:13:31.660Z,17.34
2023-09-30T17:15:58.379Z,17.09
2023-09-30T17:18:25.051Z,16.99
2023-09-30T17:20:53.691Z,17.15
2023-09-30T17:23:20.417Z,17.09
2023-09-30T17:25:47.050Z,17.08
2023-09-30T17:28:13.869Z,17.01
2023-09-30T17:30:42.002Z,17.00
2023-09-30T17:33:09.582Z,16.97
2023-09-30T17:35:41.282Z,16.97
2023-09-30T17:38:08.248Z,17.03
2023-09-30T17:40:34.867Z,17.05
2023-09-30T17:43:01.463Z,16.99
2023-09-30T17:45:28.287Z,16.96
2023-09-30T17:47:55.117Z,16.98
2023-09-30T17:50:21.785Z,16.95
2023-09-30T17:52:48.448Z,16.91
2023-09-30T17:55:15.551Z,16.89
2023-09-30T17:57:42.395Z,16.83
2023-09-30T18:00:09.431Z,16.83
2023-09-30T18:02:38.572Z,16.72
2023-09-30T18:05:07.691Z,16.63
2023-09-30T18:07:34.978Z,16.65
2023-09-30T18:10:01.647Z,16.67
2023-09-30T18:12:28.287Z,16.77
2023-09-30T18:14:54.868Z,16.66
2023-09-30T18:17:21.445Z,16.72
2023-09-30T18:19:48.260Z,16.80
2023-09-30T18:22:15.632Z,16.84
2023-09-30T18:24:42.274Z,16.73
2023-09-30T18:27:08.887Z,16.77
2023-09-30T18:29:35.513Z,16.63
2023-09-30T18:32:02.355Z,16.53
2023-09-30T18:34:29.262Z,16.54
2023-09-30T18:36:56.131Z,16.43
2023-09-30T18:39:26.761Z,16.41
2023-09-30T18:41:53.709Z,16.38
2023-09-30T18:44:20.312Z,16.42
2023-09-30T18:46:47.187Z,16.35
2023-09-30T18:49:13.912Z,16.34
2023-09-30T18:51:40.583Z,16.35
2023-09-30T18:54:10.797Z,16.36
2023-09-30T18:56:38.357Z,16.37
2023-09-30T18:59:05.133Z,16.37
2023-09-30T19:01:31.967Z,16.39
2023-09-30T19:04:02.139Z,16.35
2023-09-30T19:06:29.103Z,16.31
2023-09-30T19:08:55.711Z,16.29
2023-09-30T19:11:22.709Z,16.28
2023-09-30T19:13:49.414Z,16.21
2023-09-30T19:16:17.012Z,16.18
2023-09-30T19:18:43.807Z,16.23
2023-09-30T19:21:10.473Z,16.33
2023-09-30T19:23:37.158Z,16.27
2023-09-30T19:26:03.796Z,16.38
2023-09-30T19:28:30.432Z,15.99
2023-09-30T19:30:57.047Z,16.07
2023-09-30T19:33:23.704Z,16.02
2023-09-30T19:35:50.843Z,16.03
2023-09-30T19:38:17.470Z,16.00
2023-09-30T19:40:44.107Z,15.94
2023-09-30T19:43:11.974Z,15.96
2023-09-30T19:45:38.744Z,16.03
2023-09-30T19:48:08.288Z,16.07
2023-09-30T19:50:34.991Z,16.02
2023-09-30T19:53:02.143Z,15.96
2023-09-30T19:55:28.965Z,15.87
2023-09-30T19:57:55.639Z,16.15
2023-09-30T20:00:22.596Z,15.98
2023-09-30T20:02:49.309Z,15.90
2023-09-30T20:05:17.272Z,15.84
2023-09-30T20:07:44.300Z,15.81
2023-09-30T20:10:10.969Z,15.70
2023-09-30T20:12:37.587Z,15.67
2023-09-30T20:15:05.095Z,15.64
2023-09-30T20:17:31.791Z,15.67
2023-09-30T20:19:58.438Z,15.65
2023-09-30T20:22:25.083Z,15.66
2023-09-30T20:24:56.483Z,15.55
2023-09-30T20:27:23.432Z,15.48
2023-09-30T20:29:50.025Z,15.58
2023-09-30T20:32:16.634Z,15.55
2023-09-30T20:34:43.324Z,15.54
2023-09-30T20:37:09.962Z,15.53
2023-09-30T20:39:36.719Z,15.47
2023-09-30T20:42:03.732Z,15.49
2023-09-30T20:44:30.319Z,15.48
2023-09-30T20:46:57.008Z,15.49
2023-09-30T20:49:23.662Z,15.48
2023-09-30T20:51:50.408Z,15.49
2023-09-30T20:54:17.066Z,15.48
2023-09-30T20:56:45.684Z,15.38
2023-09-30T20:59:13.260Z,15.56
2023-09-30T21:01:40.723Z,15.37
2023-09-30T21:04:08.107Z,15.28
2023-09-30T21:06:34.858Z,15.22
2023-09-30T21:09:01.474Z,15.10
2023-09-30T21:11:28.145Z,14.97
2023-09-30T21:13:54.734Z,15.00
2023-09-30T21:16:22.872Z,14.87
2023-09-30T21:18:50.325Z,14.72
2023-09-30T21:21:17.046Z,14.75
2023-09-30T21:23:43.617Z,14.81
2023-09-30T21:26:16.766Z,14.75
2023-09-30T21:28:46.283Z,14.66
2023-09-30T21:31:16.931Z,14.66
2023-09-30T21:33:44.125Z,14.71
2023-09-30T21:36:10.743Z,14.53
2023-09-30T21:38:37.935Z,14.43
2023-09-30T21:41:04.571Z,14.51
2023-09-30T21:43:32.723Z,14.35
2023-09-30T21:45:59.345Z,14.33
2023-09-30T21:48:25.975Z,14.29
2023-09-30T21:50:53.368Z,14.38
2023-09-30T21:53:19.965Z,14.17
2023-09-30T21:55:46.638Z,14.04
2023-09-30T21:58:13.334Z,14.04
2023-09-30T22:00:40.970Z,14.04
2023-09-30T22:03:08.474Z,14.00
2023-09-30T22:05:35.113Z,14.17
2023-09-30T22:08:01.738Z,14.09
2023-09-30T22:10:28.529Z,14.05
2023-09-30T22:12:55.244Z,14.01
2023-09-30T22:15:22.277Z,13.98
2023-09-30T22:17:49.510Z,13.95
2023-09-30T22:20:16.247Z,13.85
2023-09-30T22:22:43.426Z,13.94
2023-09-30T22:25:10.871Z,13.69
2023-09-30T22:27:37.719Z,13.57
2023-09-30T22:30:06.403Z,13.63
2023-09-30T22:32:33.392Z,13.74
2023-09-30T22:35:00.195Z,13.51
2023-09-30T22:37:27.108Z,13.44
2023-09-30T22:39:53.837Z,13.47
2023-09-30T22:42:20.465Z,13.47
2023-09-30T22:44:47.127Z,13.46
2023-09-30T22:47:13.901Z,13.42
2023-09-30T22:49:40.680Z,13.45
2023-09-30T22:52:07.389Z,13.50
2023-09-30T22:54:34.608Z,13.42
2023-09-30T22:57:01.477Z,13.35
2023-09-30T22:59:28.090Z,13.32
2023-09-30T23:01:55.728Z,13.32
2023-09-30T23:04:22.438Z,13.21
2023-09-30T23:06:49.909Z,13.17
2023-09-30T23:09:21.959Z,13.08
2023-09-30T23:11:49.164Z,12.97
2023-09-30T23:14:15.888Z,12.95
2023-09-30T23:16:42.717Z,13.02
2023-09-30T23:19:09.445Z,13.02
2023-09-30T23:21:38.016Z,13.20
2023-09-30T23:24:07.755Z,13.06
2023-09-30T23:26:37.940Z,12.94
2023-09-30T23:29:09.223Z,12.84
2023-09-30T23:31:38.495Z,12.80
2023-09-30T23:34:06.566Z,12.75
2023-09-30T23:36:33.211Z,12.83
2023-09-30T23:38:59.992Z,12.73
2023-09-30T23:41:27.238Z,12.71
2023-09-30T23:43:55.363Z,12.67
2023-09-30T23:46:24.784Z,12.60
2023-09-30T23:48:53.515Z,12.52
2023-09-30T23:51:20.293Z,12.65
2023-09-30T23:53:47.551Z,12.22
2023-09-30T23:56:17.455Z,12.39
2023-09-30T23:58:44.205Z,12.41
